sensor_id;sensor_type;location;lat;lon;timestamp;pressure;altitude;pressure_sealevel;temperature;humidity
3150;BME280;32503;47.748;8.960;2024-02-04T00:02:26;98140.13;;;7.35;68.87
3150;BME280;32503;47.748;8.960;2024-02-04T00:04:55;98143.78;;;7.39;69.38
3150;BME280;32503;47.748;8.960;2024-02-04T00:07:25;98154.44;;;7.44;68.87
3150;BME280;32503;47.748;8.960;2024-02-04T00:09:52;98161.72;;;7.44;69.31
3150;BME280;32503;47.748;8.960;2024-02-04T00:12:19;98166.81;;;7.45;69.05
3150;BME280;32503;47.748;8.960;2024-02-04T00:14:49;98155.22;;;7.45;68.64
3150;BME280;32503;47.748;8.960;2024-02-04T00:17:17;98167.31;;;7.47;68.97
3150;BME280;32503;47.748;8.960;2024-02-04T00:19:45;98172.09;;;7.50;68.36
3150;BME280;32503;47.748;8.960;2024-02-04T00:22:14;98163.91;;;7.55;68.51
3150;BME280;32503;47.748;8.960;2024-02-04T00:24:43;98165.78;;;7.55;68.67
3150;BME280;32503;47.748;8.960;2024-02-04T00:27:13;98168.47;;;7.55;68.36
3150;BME280;32503;47.748;8.960;2024-02-04T00:29:43;98175.16;;;7.57;68.55
3150;BME280;32503;47.748;8.960;2024-02-04T00:32:13;98173.66;;;7.51;68.68
3150;BME280;32503;47.748;8.960;2024-02-04T00:34:40;98179.66;;;7.48;69.67
3150;BME280;32503;47.748;8.960;2024-02-04T00:37:07;98178.84;;;7.48;69.18
3150;BME280;32503;47.748;8.960;2024-02-04T00:39:36;98179.34;;;7.50;69.57
3150;BME280;32503;47.748;8.960;2024-02-04T00:42:05;98183.84;;;7.54;69.10
3150;BME280;32503;47.748;8.960;2024-02-04T00:44:34;98176.34;;;7.51;69.55
3150;BME280;32503;47.748;8.960;2024-02-04T00:47:13;98168.28;;;7.51;69.34
3150;BME280;32503;47.748;8.960;2024-02-04T00:49:40;98167.97;;;7.53;69.58
3150;BME280;32503;47.748;8.960;2024-02-04T00:52:07;98163.38;;;7.53;69.79
3150;BME280;32503;47.748;8.960;2024-02-04T00:54:36;98163.00;;;7.46;69.93
3150;BME280;32503;47.748;8.960;2024-02-04T00:57:03;98159.91;;;7.53;69.86
3150;BME280;32503;47.748;8.960;2024-02-04T00:59:30;98157.41;;;7.56;69.45
3150;BME280;32503;47.748;8.960;2024-02-04T01:01:57;98151.06;;;7.52;69.20
3150;BME280;32503;47.748;8.960;2024-02-04T01:04:25;98145.25;;;7.59;69.29
3150;BME280;32503;47.748;8.960;2024-02-04T01:06:52;98139.91;;;7.45;69.83
3150;BME280;32503;47.748;8.960;2024-02-04T01:09:19;98143.19;;;7.42;69.69
3150;BME280;32503;47.748;8.960;2024-02-04T01:11:47;98130.34;;;7.39;69.93
3150;BME280;32503;47.748;8.960;2024-02-04T01:14:14;98119.75;;;7.43;69.73
3150;BME280;32503;47.748;8.960;2024-02-04T01:16:41;98124.34;;;7.42;69.97
3150;BME280;32503;47.748;8.960;2024-02-04T01:19:08;98118.19;;;7.42;69.98
3150;BME280;32503;47.748;8.960;2024-02-04T01:21:35;98124.34;;;7.42;70.09
3150;BME280;32503;47.748;8.960;2024-02-04T01:24:03;98137.91;;;7.37;70.02
3150;BME280;32503;47.748;8.960;2024-02-04T01:26:30;98148.75;;;7.46;69.36
3150;BME280;32503;47.748;8.960;2024-02-04T01:28:58;98135.38;;;7.54;69.33
3150;BME280;32503;47.748;8.960;2024-02-04T01:31:27;98137.09;;;7.50;68.94
3150;BME280;32503;47.748;8.960;2024-02-04T01:33:54;98142.50;;;7.50;69.11
3150;BME280;32503;47.748;8.960;2024-02-04T01:36:21;98124.31;;;7.56;68.79
3150;BME280;32503;47.748;8.960;2024-02-04T01:38:48;98117.63;;;7.53;68.94
3150;BME280;32503;47.748;8.960;2024-02-04T01:41:15;98114.75;;;7.50;68.93
3150;BME280;32503;47.748;8.960;2024-02-04T01:43:42;98130.13;;;7.49;69.60
3150;BME280;32503;47.748;8.960;2024-02-04T01:46:11;98132.63;;;7.46;69.17
3150;BME280;32503;47.748;8.960;2024-02-04T01:48:39;98131.84;;;7.45;69.17
3150;BME280;32503;47.748;8.960;2024-02-04T01:51:06;98134.81;;;7.44;69.97
3150;BME280;32503;47.748;8.960;2024-02-04T01:53:34;98130.78;;;7.55;69.22
3150;BME280;32503;47.748;8.960;2024-02-04T01:56:03;98127.50;;;7.58;69.04
3150;BME280;32503;47.748;8.960;2024-02-04T01:58:30;98123.72;;;7.59;69.38
3150;BME280;32503;47.748;8.960;2024-02-04T02:00:57;98121.44;;;7.52;69.65
3150;BME280;32503;47.748;8.960;2024-02-04T02:03:26;98123.34;;;7.52;69.39
3150;BME280;32503;47.748;8.960;2024-02-04T02:05:54;98123.16;;;7.48;69.93
3150;BME280;32503;47.748;8.960;2024-02-04T02:08:22;98115.75;;;7.54;69.65
3150;BME280;32503;47.748;8.960;2024-02-04T02:10:53;98096.97;;;7.40;69.75
3150;BME280;32503;47.748;8.960;2024-02-04T02:13:26;98117.16;;;7.51;69.90
3150;BME280;32503;47.748;8.960;2024-02-04T02:16:02;98123.66;;;7.50;70.17
3150;BME280;32503;47.748;8.960;2024-02-04T02:18:40;98126.34;;;7.50;70.04
3150;BME280;32503;47.748;8.960;2024-02-04T02:21:26;98130.41;;;7.48;70.09
3150;BME280;32503;47.748;8.960;2024-02-04T02:24:14;98101.13;;;7.46;70.31
3150;BME280;32503;47.748;8.960;2024-02-04T02:26:44;98104.19;;;7.53;69.71
3150;BME280;32503;47.748;8.960;2024-02-04T02:29:12;98110.38;;;7.54;69.92
3150;BME280;32503;47.748;8.960;2024-02-04T02:31:40;98102.81;;;7.56;69.59
3150;BME280;32503;47.748;8.960;2024-02-04T02:34:08;98104.25;;;7.62;69.54
3150;BME280;32503;47.748;8.960;2024-02-04T02:36:42;98112.34;;;7.62;69.38
3150;BME280;32503;47.748;8.960;2024-02-04T02:39:15;98114.84;;;7.58;69.49
3150;BME280;32503;47.748;8.960;2024-02-04T02:41:49;98106.19;;;7.48;69.87
3150;BME280;32503;47.748;8.960;2024-02-04T02:44:17;98104.44;;;7.43;70.44
3150;BME280;32503;47.748;8.960;2024-02-04T02:46:45;98116.78;;;7.44;70.60
3150;BME280;32503;47.748;8.960;2024-02-04T02:49:13;98110.97;;;7.51;70.72
3150;BME280;32503;47.748;8.960;2024-02-04T02:51:40;98103.09;;;7.54;70.50
3150;BME280;32503;47.748;8.960;2024-02-04T02:54:07;98106.56;;;7.55;70.36
3150;BME280;32503;47.748;8.960;2024-02-04T02:56:35;98109.91;;;7.52;70.99
3150;BME280;32503;47.748;8.960;2024-02-04T02:59:03;98108.00;;;7.52;70.76
3150;BME280;32503;47.748;8.960;2024-02-04T03:01:31;98105.13;;;7.49;70.88
3150;BME280;32503;47.748;8.960;2024-02-04T03:03:58;98103.81;;;7.46;71.14
3150;BME280;32503;47.748;8.960;2024-02-04T03:06:25;98106.50;;;7.46;71.91
3150;BME280;32503;47.748;8.960;2024-02-04T03:08:52;98104.19;;;7.53;71.42
3150;BME280;32503;47.748;8.960;2024-02-04T03:11:19;98099.72;;;7.49;71.29
3150;BME280;32503;47.748;8.960;2024-02-04T03:13:46;98097.22;;;7.52;71.57
3150;BME280;32503;47.748;8.960;2024-02-04T03:16:14;98112.63;;;7.60;71.01
3150;BME280;32503;47.748;8.960;2024-02-04T03:18:42;98074.31;;;7.41;70.76
3150;BME280;32503;47.748;8.960;2024-02-04T03:21:13;98101.75;;;7.66;70.94
3150;BME280;32503;47.748;8.960;2024-02-04T03:23:41;98115.72;;;7.68;71.24
3150;BME280;32503;47.748;8.960;2024-02-04T03:26:08;98100.56;;;7.72;71.24
3150;BME280;32503;47.748;8.960;2024-02-04T03:28:36;98111.81;;;7.74;71.10
3150;BME280;32503;47.748;8.960;2024-02-04T03:31:03;98118.91;;;7.70;71.14
3150;BME280;32503;47.748;8.960;2024-02-04T03:33:32;98129.69;;;7.70;70.85
3150;BME280;32503;47.748;8.960;2024-02-04T03:35:58;98131.25;;;7.71;71.19
3150;BME280;32503;47.748;8.960;2024-02-04T03:38:25;98130.47;;;7.70;71.11
3150;BME280;32503;47.748;8.960;2024-02-04T03:40:53;98122.19;;;7.67;71.04
3150;BME280;32503;47.748;8.960;2024-02-04T03:43:20;98119.03;;;7.65;71.20
3150;BME280;32503;47.748;8.960;2024-02-04T03:45:47;98133.75;;;7.67;71.11
3150;BME280;32503;47.748;8.960;2024-02-04T03:48:14;98126.59;;;7.63;71.63
3150;BME280;32503;47.748;8.960;2024-02-04T03:50:43;98133.88;;;7.62;71.60
3150;BME280;32503;47.748;8.960;2024-02-04T03:53:10;98140.66;;;7.59;71.34
3150;BME280;32503;47.748;8.960;2024-02-04T03:55:37;98123.66;;;7.50;71.42
3150;BME280;32503;47.748;8.960;2024-02-04T03:58:04;98147.03;;;7.64;71.45
3150;BME280;32503;47.748;8.960;2024-02-04T04:00:31;98150.53;;;7.64;71.21
3150;BME280;32503;47.748;8.960;2024-02-04T04:02:58;98151.81;;;7.67;71.63
3150;BME280;32503;47.748;8.960;2024-02-04T04:05:25;98144.53;;;7.67;71.75
3150;BME280;32503;47.748;8.960;2024-02-04T04:07:53;98148.81;;;7.68;71.81
3150;BME280;32503;47.748;8.960;2024-02-04T04:10:20;98153.41;;;7.68;71.19
3150;BME280;32503;47.748;8.960;2024-02-04T04:12:48;98155.00;;;7.69;71.54
3150;BME280;32503;47.748;8.960;2024-02-04T04:15:15;98152.19;;;7.74;71.13
3150;BME280;32503;47.748;8.960;2024-02-04T04:17:42;98159.78;;;7.72;71.48
3150;BME280;32503;47.748;8.960;2024-02-04T04:20:10;98159.78;;;7.72;71.61
3150;BME280;32503;47.748;8.960;2024-02-04T04:22:39;98155.97;;;7.73;71.19
3150;BME280;32503;47.748;8.960;2024-02-04T04:25:09;98159.06;;;7.80;71.52
3150;BME280;32503;47.748;8.960;2024-02-04T04:27:36;98146.56;;;7.84;71.25
3150;BME280;32503;47.748;8.960;2024-02-04T04:30:04;98147.78;;;7.78;71.16
3150;BME280;32503;47.748;8.960;2024-02-04T04:32:32;98093.16;;;7.41;70.98
3150;BME280;32503;47.748;8.960;2024-02-04T04:34:59;98134.66;;;7.76;71.16
3150;BME280;32503;47.748;8.960;2024-02-04T04:37:26;98110.94;;;7.65;70.99
3150;BME280;32503;47.748;8.960;2024-02-04T04:39:53;98141.78;;;7.81;71.34
3150;BME280;32503;47.748;8.960;2024-02-04T04:42:22;98146.19;;;7.77;71.28
3150;BME280;32503;47.748;8.960;2024-02-04T04:44:49;98147.00;;;7.77;71.29
3150;BME280;32503;47.748;8.960;2024-02-04T04:47:16;98151.59;;;7.77;70.98
3150;BME280;32503;47.748;8.960;2024-02-04T04:49:43;98156.97;;;7.77;70.93
3150;BME280;32503;47.748;8.960;2024-02-04T04:52:10;98156.19;;;7.76;71.23
3150;BME280;32503;47.748;8.960;2024-02-04T04:54:37;98154.75;;;7.79;70.58
3150;BME280;32503;47.748;8.960;2024-02-04T04:57:04;98145.59;;;7.80;70.48
3150;BME280;32503;47.748;8.960;2024-02-04T04:59:33;98160.16;;;7.79;70.29
3150;BME280;32503;47.748;8.960;2024-02-04T05:02:01;98153.78;;;7.75;70.66
3150;BME280;32503;47.748;8.960;2024-02-04T05:04:28;98161.34;;;7.73;70.25
3150;BME280;32503;47.748;8.960;2024-02-04T05:06:55;98169.56;;;7.68;70.64
3150;BME280;32503;47.748;8.960;2024-02-04T05:09:22;98166.97;;;7.63;70.77
3150;BME280;32503;47.748;8.960;2024-02-04T05:11:49;98162.19;;;7.59;70.46
3150;BME280;32503;47.748;8.960;2024-02-04T05:14:17;98158.91;;;7.63;70.79
3150;BME280;32503;47.748;8.960;2024-02-04T05:16:45;98152.81;;;7.57;70.62
3150;BME280;32503;47.748;8.960;2024-02-04T05:19:12;98162.59;;;7.53;70.41
3150;BME280;32503;47.748;8.960;2024-02-04T05:21:39;98170.38;;;7.54;70.41
3150;BME280;32503;47.748;8.960;2024-02-04T05:24:06;98157.63;;;7.46;71.08
3150;BME280;32503;47.748;8.960;2024-02-04T05:26:34;98148.75;;;7.46;70.94
3150;BME280;32503;47.748;8.960;2024-02-04T05:29:01;98158.44;;;7.47;70.63
3150;BME280;32503;47.748;8.960;2024-02-04T05:31:28;98164.91;;;7.46;70.51
3150;BME280;32503;47.748;8.960;2024-02-04T05:33:56;98158.75;;;7.45;70.68
3150;BME280;32503;47.748;8.960;2024-02-04T05:36:23;98149.06;;;7.44;70.47
3150;BME280;32503;47.748;8.960;2024-02-04T05:38:50;98148.47;;;7.47;70.17
3150;BME280;32503;47.748;8.960;2024-02-04T05:41:17;98156.84;;;7.46;70.54
3150;BME280;32503;47.748;8.960;2024-02-04T05:43:44;98161.63;;;7.49;70.40
3150;BME280;32503;47.748;8.960;2024-02-04T05:46:13;98163.31;;;7.45;70.88
3150;BME280;32503;47.748;8.960;2024-02-04T05:48:41;98156.84;;;7.46;70.63
3150;BME280;32503;47.748;8.960;2024-02-04T05:51:11;98150.38;;;7.47;70.09
3150;BME280;32503;47.748;8.960;2024-02-04T05:53:38;98154.44;;;7.44;70.28
3150;BME280;32503;47.748;8.960;2024-02-04T05:56:05;98145.88;;;7.42;70.35
3150;BME280;32503;47.748;8.960;2024-02-04T05:58:33;98151.66;;;7.49;70.57
3150;BME280;32503;47.748;8.960;2024-02-04T06:01:00;98154.94;;;7.46;70.34
3150;BME280;32503;47.748;8.960;2024-02-04T06:03:27;98164.22;;;7.40;70.74
3150;BME280;32503;47.748;8.960;2024-02-04T06:05:54;98176.25;;;7.43;70.58
3150;BME280;32503;47.748;8.960;2024-02-04T06:08:22;98174.41;;;7.43;70.42
3150;BME280;32503;47.748;8.960;2024-02-04T06:10:49;98172.31;;;7.40;70.79
3150;BME280;32503;47.748;8.960;2024-02-04T06:13:17;98162.22;;;7.46;70.48
3150;BME280;32503;47.748;8.960;2024-02-04T06:15:44;98167.31;;;7.47;70.18
3150;BME280;32503;47.748;8.960;2024-02-04T06:18:11;98162.41;;;7.49;70.01
3150;BME280;32503;47.748;8.960;2024-02-04T06:20:38;98158.44;;;7.47;69.85
3150;BME280;32503;47.748;8.960;2024-02-04T06:23:05;98160.84;;;7.48;70.21
3150;BME280;32503;47.748;8.960;2024-02-04T06:25:33;98159.22;;;7.47;69.96
3150;BME280;32503;47.748;8.960;2024-02-04T06:28:00;98162.41;;;7.49;69.57
3150;BME280;32503;47.748;8.960;2024-02-04T06:30:27;98158.34;;;7.52;69.73
3150;BME280;32503;47.748;8.960;2024-02-04T06:32:54;98141.50;;;7.32;70.36
3150;BME280;32503;47.748;8.960;2024-02-04T06:35:22;98149.56;;;7.46;70.03
3150;BME280;32503;47.748;8.960;2024-02-04T06:37:49;98136.81;;;7.52;69.73
3150;BME280;32503;47.748;8.960;2024-02-04T06:40:16;98131.22;;;7.48;70.18
3150;BME280;32503;47.748;8.960;2024-02-04T06:42:45;98145.00;;;7.47;69.70
3150;BME280;32503;47.748;8.960;2024-02-04T06:45:12;98157.13;;;7.44;70.14
3150;BME280;32503;47.748;8.960;2024-02-04T06:47:39;98153.47;;;7.40;70.24
3150;BME280;32503;47.748;8.960;2024-02-04T06:50:09;98150.84;;;7.49;69.98
3150;BME280;32503;47.748;8.960;2024-02-04T06:52:39;98154.63;;;7.48;69.84
3150;BME280;32503;47.748;8.960;2024-02-04T06:55:07;98153.84;;;7.47;69.59
3150;BME280;32503;47.748;8.960;2024-02-04T06:57:34;98154.81;;;7.51;69.37
3150;BME280;32503;47.748;8.960;2024-02-04T07:00:03;98162.91;;;7.51;69.53
3150;BME280;32503;47.748;8.960;2024-02-04T07:02:33;98152.25;;;7.46;69.30
3150;BME280;32503;47.748;8.960;2024-02-04T07:05:00;98151.56;;;7.40;69.89
3150;BME280;32503;47.748;8.960;2024-02-04T07:07:27;98147.69;;;7.33;70.18
3150;BME280;32503;47.748;8.960;2024-02-04T07:09:55;98149.16;;;7.39;69.84
3150;BME280;32503;47.748;8.960;2024-02-04T07:12:22;98155.66;;;7.38;69.80
3150;BME280;32503;47.748;8.960;2024-02-04T07:14:49;98168.81;;;7.39;70.13
3150;BME280;32503;47.748;8.960;2024-02-04T07:17:18;98175.59;;;7.37;69.75
3150;BME280;32503;47.748;8.960;2024-02-04T07:19:45;98181.66;;;7.43;69.90
3150;BME280;32503;47.748;8.960;2024-02-04T07:22:12;98182.84;;;7.50;70.23
3150;BME280;32503;47.748;8.960;2024-02-04T07:24:39;98164.69;;;7.56;69.59
3150;BME280;32503;47.748;8.960;2024-02-04T07:27:06;98173.06;;;7.54;69.77
3150;BME280;32503;47.748;8.960;2024-02-04T07:29:33;98178.66;;;7.58;69.78
3150;BME280;32503;47.748;8.960;2024-02-04T07:32:00;98166.59;;;7.55;69.73
3150;BME280;32503;47.748;8.960;2024-02-04T07:34:28;98178.25;;;7.65;69.37
3150;BME280;32503;47.748;8.960;2024-02-04T07:36:55;98172.94;;;7.73;69.60
3150;BME280;32503;47.748;8.960;2024-02-04T07:39:22;98174.69;;;7.78;69.34
3150;BME280;32503;47.748;8.960;2024-02-04T07:41:49;98164.13;;;7.82;68.73
3150;BME280;32503;47.748;8.960;2024-02-04T07:44:16;98161.00;;;7.88;68.98
3150;BME280;32503;47.748;8.960;2024-02-04T07:46:43;98166.47;;;7.97;68.40
3150;BME280;32503;47.748;8.960;2024-02-04T07:49:10;98168.84;;;7.98;68.61
3150;BME280;32503;47.748;8.960;2024-02-04T07:51:39;98169.66;;;7.99;68.13
3150;BME280;32503;47.748;8.960;2024-02-04T07:54:06;98171.25;;;8.00;68.41
3150;BME280;32503;47.748;8.960;2024-02-04T07:56:33;98175.09;;;8.08;67.90
3150;BME280;32503;47.748;8.960;2024-02-04T07:59:00;98149.72;;;8.00;67.67
3150;BME280;32503;47.748;8.960;2024-02-04T08:01:29;98166.59;;;8.14;67.62
3150;BME280;32503;47.748;8.960;2024-02-04T08:03:56;98163.59;;;8.16;67.91
3150;BME280;32503;47.748;8.960;2024-02-04T08:06:23;98159.19;;;8.20;67.45
3150;BME280;32503;47.748;8.960;2024-02-04T08:08:51;98157.97;;;8.26;67.15
3150;BME280;32503;47.748;8.960;2024-02-04T08:11:20;98150.31;;;8.20;67.15
3150;BME280;32503;47.748;8.960;2024-02-04T08:13:47;98137.56;;;8.11;67.06
3150;BME280;32503;47.748;8.960;2024-02-04T08:16:14;98143.66;;;8.17;66.91
3150;BME280;32503;47.748;8.960;2024-02-04T08:18:42;98131.28;;;8.16;67.41
3150;BME280;32503;47.748;8.960;2024-02-04T08:21:09;98130.38;;;8.21;66.99
3150;BME280;32503;47.748;8.960;2024-02-04T08:23:36;98125.81;;;8.30;66.86
3150;BME280;32503;47.748;8.960;2024-02-04T08:26:04;98127.69;;;8.21;67.10
3150;BME280;32503;47.748;8.960;2024-02-04T08:28:31;98135.44;;;8.22;66.69
3150;BME280;32503;47.748;8.960;2024-02-04T08:30:58;98132.59;;;8.27;66.49
3150;BME280;32503;47.748;8.960;2024-02-04T08:33:25;98129.91;;;8.27;66.32
3150;BME280;32503;47.748;8.960;2024-02-04T08:35:52;98135.19;;;8.32;65.96
3150;BME280;32503;47.748;8.960;2024-02-04T08:38:19;98137.94;;;8.41;65.79
3150;BME280;32503;47.748;8.960;2024-02-04T08:40:47;98143.41;;;8.50;65.80
3150;BME280;32503;47.748;8.960;2024-02-04T08:43:15;98144.22;;;8.59;65.34
3150;BME280;32503;47.748;8.960;2024-02-04T08:45:42;98140.78;;;8.67;64.84
3150;BME280;32503;47.748;8.960;2024-02-04T08:48:09;98144.78;;;8.79;64.23
3150;BME280;32503;47.748;8.960;2024-02-04T08:50:36;98158.34;;;8.96;64.33
3150;BME280;32503;47.748;8.960;2024-02-04T08:53:04;98156.50;;;9.05;63.95
3150;BME280;32503;47.748;8.960;2024-02-04T08:55:31;98152.06;;;9.09;63.78
3150;BME280;32503;47.748;8.960;2024-02-04T08:57:58;98145.13;;;9.26;62.78
3150;BME280;32503;47.748;8.960;2024-02-04T09:00:26;98145.78;;;9.40;61.98
3150;BME280;32503;47.748;8.960;2024-02-04T09:02:53;98135.47;;;9.51;61.49
3150;BME280;32503;47.748;8.960;2024-02-04T09:05:21;98102.94;;;9.65;61.34
3150;BME280;32503;47.748;8.960;2024-02-04T09:07:48;98123.91;;;10.03;60.03
3150;BME280;32503;47.748;8.960;2024-02-04T09:10:16;98129.63;;;10.10;60.11
3150;BME280;32503;47.748;8.960;2024-02-04T09:12:43;98139.63;;;10.27;59.45
3150;BME280;32503;47.748;8.960;2024-02-04T09:15:10;98159.19;;;10.33;58.98
3150;BME280;32503;47.748;8.960;2024-02-04T09:17:39;98160.75;;;10.34;59.72
3150;BME280;32503;47.748;8.960;2024-02-04T09:20:07;98154.09;;;10.22;59.30
3150;BME280;32503;47.748;8.960;2024-02-04T09:22:34;98141.81;;;10.25;59.17
3150;BME280;32503;47.748;8.960;2024-02-04T09:25:01;98110.69;;;10.10;59.24
3150;BME280;32503;47.748;8.960;2024-02-04T09:27:29;98137.38;;;10.47;59.45
3150;BME280;32503;47.748;8.960;2024-02-04T09:29:56;98139.44;;;10.41;59.42
3150;BME280;32503;47.748;8.960;2024-02-04T09:32:24;98143.06;;;10.62;59.12
3150;BME280;32503;47.748;8.960;2024-02-04T09:34:53;98127.34;;;10.94;57.86
3150;BME280;32503;47.748;8.960;2024-02-04T09:37:20;98126.13;;;11.13;56.61
3150;BME280;32503;47.748;8.960;2024-02-04T09:39:47;98120.03;;;11.46;56.00
3150;BME280;32503;47.748;8.960;2024-02-04T09:42:20;98132.53;;;11.59;55.46
3150;BME280;32503;47.748;8.960;2024-02-04T09:44:48;98143.13;;;11.94;55.04
3150;BME280;32503;47.748;8.960;2024-02-04T09:47:16;98142.56;;;12.22;53.34
3150;BME280;32503;47.748;8.960;2024-02-04T09:49:43;98126.06;;;12.48;52.52
3150;BME280;32503;47.748;8.960;2024-02-04T09:52:13;98122.22;;;12.61;52.44
3150;BME280;32503;47.748;8.960;2024-02-04T09:54:47;98116.03;;;12.73;51.69
3150;BME280;32503;47.748;8.960;2024-02-04T09:57:16;98121.13;;;12.75;50.84
3150;BME280;32503;47.748;8.960;2024-02-04T09:59:44;98118.53;;;12.78;51.11
3150;BME280;32503;47.748;8.960;2024-02-04T10:02:13;98098.84;;;12.81;51.25
3150;BME280;32503;47.748;8.960;2024-02-04T10:04:40;98103.13;;;12.95;50.87
3150;BME280;32503;47.748;8.960;2024-02-04T10:07:07;98092.94;;;13.04;50.56
3150;BME280;32503;47.748;8.960;2024-02-04T10:09:35;98098.03;;;13.18;50.00
3150;BME280;32503;47.748;8.960;2024-02-04T10:12:03;98101.31;;;13.36;50.17
3150;BME280;32503;47.748;8.960;2024-02-04T10:14:30;98102.19;;;13.64;50.06
3150;BME280;32503;47.748;8.960;2024-02-04T10:16:58;98093.47;;;13.99;49.22
3150;BME280;32503;47.748;8.960;2024-02-04T10:19:25;98104.53;;;14.07;48.55
3150;BME280;32503;47.748;8.960;2024-02-04T10:21:59;98100.75;;;14.11;48.60
3150;BME280;32503;47.748;8.960;2024-02-04T10:24:27;98104.13;;;13.92;48.22
3150;BME280;32503;47.748;8.960;2024-02-04T10:26:56;98092.63;;;13.71;48.77
3150;BME280;32503;47.748;8.960;2024-02-04T10:29:23;98104.25;;;13.83;49.05
3150;BME280;32503;47.748;8.960;2024-02-04T10:31:56;98098.44;;;13.97;48.69
3150;BME280;32503;47.748;8.960;2024-02-04T10:34:25;98092.16;;;14.09;48.72
3150;BME280;32503;47.748;8.960;2024-02-04T10:36:52;98099.75;;;14.32;48.50
3150;BME280;32503;47.748;8.960;2024-02-04T10:39:20;98106.00;;;14.48;47.96
3150;BME280;32503;47.748;8.960;2024-02-04T10:41:50;98108.66;;;14.60;47.12
3150;BME280;32503;47.748;8.960;2024-02-04T10:44:22;98108.94;;;14.71;47.18
3150;BME280;32503;47.748;8.960;2024-02-04T10:46:51;98100.34;;;14.85;46.18
3150;BME280;32503;47.748;8.960;2024-02-04T10:49:19;98108.75;;;14.96;46.42
3150;BME280;32503;47.748;8.960;2024-02-04T10:51:47;98101.75;;;14.95;46.38
3150;BME280;32503;47.748;8.960;2024-02-04T10:54:16;98092.06;;;14.97;45.93
3150;BME280;32503;47.748;8.960;2024-02-04T10:56:45;98083.22;;;14.85;46.10
3150;BME280;32503;47.748;8.960;2024-02-04T10:59:15;98079.34;;;14.70;46.58
3150;BME280;32503;47.748;8.960;2024-02-04T11:01:47;98090.78;;;14.59;47.29
3150;BME280;32503;47.748;8.960;2024-02-04T11:04:17;98087.00;;;14.80;46.97
3150;BME280;32503;47.748;8.960;2024-02-04T11:06:44;98072.84;;;14.90;46.31
3150;BME280;32503;47.748;8.960;2024-02-04T11:09:13;98059.75;;;14.96;46.38
3150;BME280;32503;47.748;8.960;2024-02-04T11:11:41;98054.56;;;14.91;45.38
3150;BME280;32503;47.748;8.960;2024-02-04T11:14:11;98065.72;;;14.86;46.09
3150;BME280;32503;47.748;8.960;2024-02-04T11:17:39;98063.00;;;14.86;45.71
3150;BME280;32503;47.748;8.960;2024-02-04T11:20:31;98057.28;;;14.91;46.30
3150;BME280;32503;47.748;8.960;2024-02-04T11:23:27;98054.75;;;14.82;46.10
3150;BME280;32503;47.748;8.960;2024-02-04T11:25:59;98047.13;;;14.88;46.64
3150;BME280;32503;47.748;8.960;2024-02-04T11:28:26;98043.81;;;15.14;46.05
3150;BME280;32503;47.748;8.960;2024-02-04T11:30:54;98045.00;;;15.32;46.21
3150;BME280;32503;47.748;8.960;2024-02-04T11:33:23;98033.31;;;15.51;45.55
3150;BME280;32503;47.748;8.960;2024-02-04T11:36:02;98025.28;;;15.20;45.25
3150;BME280;32503;47.748;8.960;2024-02-04T11:38:31;98030.03;;;15.07;45.84
3150;BME280;32503;47.748;8.960;2024-02-04T11:40:59;98040.66;;;15.12;45.76
3150;BME280;32503;47.748;8.960;2024-02-04T11:43:26;98053.06;;;15.09;46.02
3150;BME280;32503;47.748;8.960;2024-02-04T11:45:53;98053.44;;;14.76;45.94
3150;BME280;32503;47.748;8.960;2024-02-04T11:48:30;98052.50;;;14.68;46.47
3150;BME280;32503;47.748;8.960;2024-02-04T11:50:59;98043.31;;;14.92;46.76
3150;BME280;32503;47.748;8.960;2024-02-04T11:53:26;98049.13;;;14.91;46.35
3150;BME280;32503;47.748;8.960;2024-02-04T11:55:58;98061.38;;;15.16;46.30
3150;BME280;32503;47.748;8.960;2024-02-04T11:58:29;98044.09;;;15.44;45.51
3150;BME280;32503;47.748;8.960;2024-02-04T12:00:57;98040.69;;;15.51;44.99
3150;BME280;32503;47.748;8.960;2024-02-04T12:03:33;98040.91;;;15.42;45.61
3150;BME280;32503;47.748;8.960;2024-02-04T12:06:03;98045.78;;;15.33;45.69
3150;BME280;32503;47.748;8.960;2024-02-04T12:08:32;98025.72;;;15.41;45.48
3150;BME280;32503;47.748;8.960;2024-02-04T12:11:01;98018.41;;;15.45;45.04
3150;BME280;32503;47.748;8.960;2024-02-04T12:13:29;98010.44;;;15.56;44.82
3150;BME280;32503;47.748;8.960;2024-02-04T12:15:56;98003.50;;;15.39;44.88
3150;BME280;32503;47.748;8.960;2024-02-04T12:18:23;98013.28;;;15.24;45.34
3150;BME280;32503;47.748;8.960;2024-02-04T12:20:51;98015.81;;;15.33;45.84
3150;BME280;32503;47.748;8.960;2024-02-04T12:23:19;98021.25;;;15.52;45.40
3150;BME280;32503;47.748;8.960;2024-02-04T12:25:47;98008.41;;;15.33;45.41
3150;BME280;32503;47.748;8.960;2024-02-04T12:28:14;98004.47;;;15.11;45.02
3150;BME280;32503;47.748;8.960;2024-02-04T12:30:52;98014.41;;;15.04;46.19
3150;BME280;32503;47.748;8.960;2024-02-04T12:33:19;98007.19;;;14.76;46.28
3150;BME280;32503;47.748;8.960;2024-02-04T12:35:51;98003.94;;;14.70;46.74
3150;BME280;32503;47.748;8.960;2024-02-04T12:38:18;98001.41;;;14.62;47.19
3150;BME280;32503;47.748;8.960;2024-02-04T12:40:45;97999.28;;;14.71;47.07
3150;BME280;32503;47.748;8.960;2024-02-04T12:43:12;97999.97;;;14.68;47.08
3150;BME280;32503;47.748;8.960;2024-02-04T12:45:40;98005.69;;;14.63;46.87
3150;BME280;32503;47.748;8.960;2024-02-04T12:48:08;98003.50;;;14.68;46.75
3150;BME280;32503;47.748;8.960;2024-02-04T12:50:37;97988.91;;;14.76;46.23
3150;BME280;32503;47.748;8.960;2024-02-04T12:53:07;97984.91;;;14.70;46.49
3150;BME280;32503;47.748;8.960;2024-02-04T12:55:37;97978.44;;;14.78;46.73
3150;BME280;32503;47.748;8.960;2024-02-04T12:58:05;97974.25;;;14.81;46.62
3150;BME280;32503;47.748;8.960;2024-02-04T13:00:34;97979.91;;;14.92;47.00
3150;BME280;32503;47.748;8.960;2024-02-04T13:03:01;97974.63;;;14.99;46.55
3150;BME280;32503;47.748;8.960;2024-02-04T13:05:28;97977.34;;;14.99;46.11
3150;BME280;32503;47.748;8.960;2024-02-04T13:07:59;97974.91;;;14.94;46.09
3150;BME280;32503;47.748;8.960;2024-02-04T13:10:30;97971.88;;;14.79;45.83
3150;BME280;32503;47.748;8.960;2024-02-04T13:13:02;97973.03;;;14.63;46.46
3150;BME280;32503;47.748;8.960;2024-02-04T13:15:32;97971.97;;;14.51;46.94
3150;BME280;32503;47.748;8.960;2024-02-04T13:18:00;97967.84;;;14.41;47.17
3150;BME280;32503;47.748;8.960;2024-02-04T13:20:27;97967.94;;;14.29;47.61
3150;BME280;32503;47.748;8.960;2024-02-04T13:22:54;97967.78;;;14.22;47.59
3150;BME280;32503;47.748;8.960;2024-02-04T13:25:20;97955.59;;;14.00;48.17